sensor_id;sensor_type;location;lat;lon;timestamp;P1;durP1;ratioP1;P2;durP2;ratioP2
45011;SDS011;63444;48.148;11.542;2022-12-10T00:00:17;41.70;;;28.13;;
45011;SDS011;63444;48.148;11.542;2022-12-10T00:02:42;47.13;;;29.53;;
45011;SDS011;63444;48.148;11.542;2022-12-10T00:05:08;45.77;;;29.67;;
45011;SDS011;63444;48.148;11.542;2022-12-10T00:07:35;43.57;;;29.57;;
45011;SDS011;63444;48.148;11.542;2022-12-10T00:10:00;44.93;;;30.10;;
45011;SDS011;63444;48.148;11.542;2022-12-10T00:12:26;43.30;;;28.90;;
45011;SDS011;63444;48.148;11.542;2022-12-10T00:14:53;41.37;;;29.07;;
45011;SDS011;63444;48.148;11.542;2022-12-10T00:17:18;40.80;;;28.30;;
45011;SDS011;63444;48.148;11.542;2022-12-10T00:19:44;46.00;;;29.40;;
45011;SDS011;63444;48.148;11.542;2022-12-10T00:22:10;43.23;;;29.43;;
45011;SDS011;63444;48.148;11.542;2022-12-10T00:24:35;44.67;;;29.60;;
45011;SDS011;63444;48.148;11.542;2022-12-10T00:27:01;44.83;;;29.23;;
45011;SDS011;63444;48.148;11.542;2022-12-10T00:29:26;44.93;;;29.07;;
45011;SDS011;63444;48.148;11.542;2022-12-10T00:31:53;40.27;;;27.27;;
45011;SDS011;63444;48.148;11.542;2022-12-10T00:34:20;44.67;;;29.63;;
45011;SDS011;63444;48.148;11.542;2022-12-10T00:36:46;42.47;;;29.10;;
45011;SDS011;63444;48.148;11.542;2022-12-10T00:39:15;44.97;;;29.40;;
45011;SDS011;63444;48.148;11.542;2022-12-10T00:41:42;43.17;;;29.37;;
45011;SDS011;63444;48.148;11.542;2022-12-10T00:44:08;49.50;;;30.90;;
45011;SDS011;63444;48.148;11.542;2022-12-10T00:46:33;45.90;;;29.53;;
45011;SDS011;63444;48.148;11.542;2022-12-10T00:48:59;45.47;;;29.63;;
45011;SDS011;63444;48.148;11.542;2022-12-10T00:51:28;45.13;;;29.80;;
45011;SDS011;63444;48.148;11.542;2022-12-10T00:53:54;44.63;;;29.87;;
45011;SDS011;63444;48.148;11.542;2022-12-10T00:56:23;42.70;;;28.87;;
45011;SDS011;63444;48.148;11.542;2022-12-10T00:58:53;47.37;;;29.80;;
45011;SDS011;63444;48.148;11.542;2022-12-10T01:01:24;41.27;;;27.30;;
45011;SDS011;63444;48.148;11.542;2022-12-10T01:03:57;37.83;;;27.03;;
45011;SDS011;63444;48.148;11.542;2022-12-10T01:06:34;40.00;;;27.43;;
45011;SDS011;63444;48.148;11.542;2022-12-10T01:09:06;40.97;;;27.77;;
45011;SDS011;63444;48.148;11.542;2022-12-10T01:11:35;40.20;;;28.77;;
45011;SDS011;63444;48.148;11.542;2022-12-10T01:14:02;40.87;;;29.13;;
45011;SDS011;63444;48.148;11.542;2022-12-10T01:16:28;44.50;;;29.67;;
45011;SDS011;63444;48.148;11.542;2022-12-10T01:18:55;44.57;;;29.93;;
45011;SDS011;63444;48.148;11.542;2022-12-10T01:21:22;41.93;;;27.87;;
45011;SDS011;63444;48.148;11.542;2022-12-10T01:23:49;43.60;;;29.83;;
45011;SDS011;63444;48.148;11.542;2022-12-10T01:26:20;42.20;;;28.97;;
45011;SDS011;63444;48.148;11.542;2022-12-10T01:28:47;43.67;;;27.70;;
45011;SDS011;63444;48.148;11.542;2022-12-10T01:31:18;41.40;;;28.33;;
45011;SDS011;63444;48.148;11.542;2022-12-10T01:33:48;42.47;;;28.80;;
45011;SDS011;63444;48.148;11.542;2022-12-10T01:36:15;43.87;;;28.43;;
45011;SDS011;63444;48.148;11.542;2022-12-10T01:38:43;41.10;;;28.90;;
45011;SDS011;63444;48.148;11.542;2022-12-10T01:41:13;44.97;;;29.03;;
45011;SDS011;63444;48.148;11.542;2022-12-10T01:43:48;47.17;;;29.83;;
45011;SDS011;63444;48.148;11.542;2022-12-10T01:46:33;45.10;;;30.00;;
45011;SDS011;63444;48.148;11.542;2022-12-10T01:49:01;39.90;;;28.13;;
45011;SDS011;63444;48.148;11.542;2022-12-10T01:51:31;41.67;;;29.00;;
45011;SDS011;63444;48.148;11.542;2022-12-10T01:53:59;41.13;;;28.57;;
45011;SDS011;63444;48.148;11.542;2022-12-10T01:56:26;41.30;;;28.27;;
45011;SDS011;63444;48.148;11.542;2022-12-10T01:58:53;38.90;;;27.53;;
45011;SDS011;63444;48.148;11.542;2022-12-10T02:03:52;39.10;;;28.33;;
45011;SDS011;63444;48.148;11.542;2022-12-10T02:06:32;42.23;;;29.80;;
45011;SDS011;63444;48.148;11.542;2022-12-10T02:12:18;43.73;;;29.93;;
45011;SDS011;63444;48.148;11.542;2022-12-10T02:14:58;43.37;;;29.30;;
45011;SDS011;63444;48.148;11.542;2022-12-10T02:20:30;41.27;;;28.70;;
45011;SDS011;63444;48.148;11.542;2022-12-10T02:23:02;45.10;;;30.17;;
45011;SDS011;63444;48.148;11.542;2022-12-10T02:25:56;43.60;;;28.07;;
45011;SDS011;63444;48.148;11.542;2022-12-10T02:28:22;42.20;;;28.33;;
45011;SDS011;63444;48.148;11.542;2022-12-10T02:30:53;39.13;;;26.93;;
45011;SDS011;63444;48.148;11.542;2022-12-10T02:33:19;39.53;;;27.73;;
45011;SDS011;63444;48.148;11.542;2022-12-10T02:35:49;41.27;;;28.13;;
45011;SDS011;63444;48.148;11.542;2022-12-10T02:38:18;38.60;;;27.73;;
45011;SDS011;63444;48.148;11.542;2022-12-10T02:40:55;41.07;;;29.13;;
45011;SDS011;63444;48.148;11.542;2022-12-10T02:43:24;43.40;;;28.50;;
45011;SDS011;63444;48.148;11.542;2022-12-10T02:45:53;41.20;;;28.90;;
45011;SDS011;63444;48.148;11.542;2022-12-10T02:48:20;38.63;;;28.17;;
45011;SDS011;63444;48.148;11.542;2022-12-10T02:50:47;38.30;;;26.90;;
45011;SDS011;63444;48.148;11.542;2022-12-10T02:53:12;38.47;;;28.37;;
45011;SDS011;63444;48.148;11.542;2022-12-10T02:55:42;38.20;;;27.87;;
45011;SDS011;63444;48.148;11.542;2022-12-10T03:01:03;37.70;;;26.37;;
45011;SDS011;63444;48.148;11.542;2022-12-10T03:03:48;37.03;;;26.50;;
45011;SDS011;63444;48.148;11.542;2022-12-10T03:09:12;35.07;;;26.40;;
45011;SDS011;63444;48.148;11.542;2022-12-10T03:11:44;35.03;;;24.90;;
45011;SDS011;63444;48.148;11.542;2022-12-10T03:14:16;34.60;;;25.70;;
45011;SDS011;63444;48.148;11.542;2022-12-10T03:16:51;32.83;;;24.27;;
45011;SDS011;63444;48.148;11.542;2022-12-10T03:19:21;33.93;;;24.80;;
45011;SDS011;63444;48.148;11.542;2022-12-10T03:21:50;32.87;;;24.57;;
45011;SDS011;63444;48.148;11.542;2022-12-10T03:24:18;34.23;;;24.97;;
45011;SDS011;63444;48.148;11.542;2022-12-10T03:26:45;34.43;;;24.83;;
45011;SDS011;63444;48.148;11.542;2022-12-10T03:29:15;32.33;;;24.60;;
45011;SDS011;63444;48.148;11.542;2022-12-10T03:31:47;31.17;;;23.50;;
45011;SDS011;63444;48.148;11.542;2022-12-10T03:34:14;33.20;;;23.50;;
45011;SDS011;63444;48.148;11.542;2022-12-10T03:36:40;34.73;;;24.87;;
45011;SDS011;63444;48.148;11.542;2022-12-10T03:39:07;35.07;;;25.63;;
45011;SDS011;63444;48.148;11.542;2022-12-10T03:41:33;37.57;;;26.67;;
45011;SDS011;63444;48.148;11.542;2022-12-10T03:43:59;38.57;;;26.67;;
45011;SDS011;63444;48.148;11.542;2022-12-10T03:46:26;39.03;;;27.13;;
45011;SDS011;63444;48.148;11.542;2022-12-10T03:48:54;44.07;;;29.07;;
45011;SDS011;63444;48.148;11.542;2022-12-10T03:51:20;43.40;;;28.53;;
45011;SDS011;63444;48.148;11.542;2022-12-10T03:53:46;44.40;;;28.63;;
45011;SDS011;63444;48.148;11.542;2022-12-10T03:56:13;42.00;;;27.93;;
45011;SDS011;63444;48.148;11.542;2022-12-10T03:58:39;41.67;;;27.37;;
45011;SDS011;63444;48.148;11.542;2022-12-10T04:01:07;36.50;;;26.13;;
45011;SDS011;63444;48.148;11.542;2022-12-10T04:03:37;40.57;;;27.83;;
45011;SDS011;63444;48.148;11.542;2022-12-10T04:06:08;42.03;;;27.03;;
45011;SDS011;63444;48.148;11.542;2022-12-10T04:08:36;35.77;;;25.57;;
45011;SDS011;63444;48.148;11.542;2022-12-10T04:11:03;37.33;;;25.83;;
45011;SDS011;63444;48.148;11.542;2022-12-10T04:13:33;36.93;;;25.50;;
45011;SDS011;63444;48.148;11.542;2022-12-10T04:16:22;37.33;;;25.67;;
45011;SDS011;63444;48.148;11.542;2022-12-10T04:18:52;35.43;;;25.43;;
45011;SDS011;63444;48.148;11.542;2022-12-10T04:21:23;35.63;;;25.83;;
45011;SDS011;63444;48.148;11.542;2022-12-10T04:24:08;33.20;;;23.47;;
45011;SDS011;63444;48.148;11.542;2022-12-10T04:26:54;34.03;;;23.93;;
45011;SDS011;63444;48.148;11.542;2022-12-10T04:29:23;35.30;;;24.77;;
45011;SDS011;63444;48.148;11.542;2022-12-10T04:31:50;32.70;;;22.87;;
45011;SDS011;63444;48.148;11.542;2022-12-10T04:34:16;33.27;;;22.77;;
45011;SDS011;63444;48.148;11.542;2022-12-10T04:36:42;33.40;;;24.53;;
45011;SDS011;63444;48.148;11.542;2022-12-10T04:39:07;32.20;;;23.53;;
45011;SDS011;63444;48.148;11.542;2022-12-10T04:41:33;32.73;;;23.63;;
45011;SDS011;63444;48.148;11.542;2022-12-10T04:43:59;35.07;;;25.50;;
45011;SDS011;63444;48.148;11.542;2022-12-10T04:46:24;36.87;;;24.10;;
45011;SDS011;63444;48.148;11.542;2022-12-10T04:48:50;36.53;;;25.60;;
45011;SDS011;63444;48.148;11.542;2022-12-10T04:51:15;33.90;;;24.57;;
45011;SDS011;63444;48.148;11.542;2022-12-10T04:53:41;34.67;;;24.47;;
45011;SDS011;63444;48.148;11.542;2022-12-10T04:56:06;37.60;;;25.67;;
45011;SDS011;63444;48.148;11.542;2022-12-10T04:58:32;33.50;;;24.67;;
45011;SDS011;63444;48.148;11.542;2022-12-10T05:01:05;34.40;;;23.57;;
45011;SDS011;63444;48.148;11.542;2022-12-10T05:03:32;32.87;;;24.73;;
45011;SDS011;63444;48.148;11.542;2022-12-10T05:06:06;32.27;;;24.77;;
45011;SDS011;63444;48.148;11.542;2022-12-10T05:08:33;32.13;;;23.47;;
45011;SDS011;63444;48.148;11.542;2022-12-10T05:11:03;31.43;;;22.73;;
45011;SDS011;63444;48.148;11.542;2022-12-10T05:13:45;32.23;;;24.23;;
45011;SDS011;63444;48.148;11.542;2022-12-10T05:16:13;32.80;;;24.53;;
45011;SDS011;63444;48.148;11.542;2022-12-10T05:18:40;31.93;;;22.93;;
45011;SDS011;63444;48.148;11.542;2022-12-10T05:21:07;30.87;;;23.30;;
45011;SDS011;63444;48.148;11.542;2022-12-10T05:23:36;32.63;;;23.60;;
45011;SDS011;63444;48.148;11.542;2022-12-10T05:26:07;33.40;;;24.83;;
45011;SDS011;63444;48.148;11.542;2022-12-10T05:28:46;30.23;;;22.63;;
45011;SDS011;63444;48.148;11.542;2022-12-10T05:31:14;31.10;;;22.57;;
45011;SDS011;63444;48.148;11.542;2022-12-10T05:33:41;31.60;;;23.43;;
45011;SDS011;63444;48.148;11.542;2022-12-10T05:36:07;29.73;;;22.60;;
45011;SDS011;63444;48.148;11.542;2022-12-10T05:38:35;32.07;;;24.33;;
45011;SDS011;63444;48.148;11.542;2022-12-10T05:41:04;29.30;;;22.63;;
45011;SDS011;63444;48.148;11.542;2022-12-10T05:43:33;29.30;;;21.93;;
45011;SDS011;63444;48.148;11.542;2022-12-10T05:46:00;28.90;;;21.80;;
45011;SDS011;63444;48.148;11.542;2022-12-10T05:48:27;31.07;;;22.90;;
45011;SDS011;63444;48.148;11.542;2022-12-10T05:50:54;28.70;;;21.57;;
45011;SDS011;63444;48.148;11.542;2022-12-10T05:53:21;29.67;;;22.13;;
45011;SDS011;63444;48.148;11.542;2022-12-10T05:55:47;30.20;;;22.27;;
45011;SDS011;63444;48.148;11.542;2022-12-10T05:58:14;29.17;;;22.27;;
45011;SDS011;63444;48.148;11.542;2022-12-10T06:00:40;31.00;;;23.63;;
45011;SDS011;63444;48.148;11.542;2022-12-10T06:03:06;29.80;;;23.03;;
45011;SDS011;63444;48.148;11.542;2022-12-10T06:05:36;28.23;;;21.43;;
45011;SDS011;63444;48.148;11.542;2022-12-10T06:08:03;29.73;;;21.80;;
45011;SDS011;63444;48.148;11.542;2022-12-10T06:10:29;30.97;;;23.67;;
45011;SDS011;63444;48.148;11.542;2022-12-10T06:12:55;31.13;;;23.63;;
45011;SDS011;63444;48.148;11.542;2022-12-10T06:15:21;30.77;;;23.53;;
45011;SDS011;63444;48.148;11.542;2022-12-10T06:17:46;31.20;;;23.03;;
45011;SDS011;63444;48.148;11.542;2022-12-10T06:20:13;31.97;;;24.53;;
45011;SDS011;63444;48.148;11.542;2022-12-10T06:22:39;31.63;;;23.67;;
45011;SDS011;63444;48.148;11.542;2022-12-10T06:25:04;31.87;;;23.53;;
45011;SDS011;63444;48.148;11.542;2022-12-10T06:27:31;29.73;;;22.80;;
45011;SDS011;63444;48.148;11.542;2022-12-10T06:29:57;30.67;;;22.50;;
45011;SDS011;63444;48.148;11.542;2022-12-10T06:32:22;30.20;;;22.77;;
45011;SDS011;63444;48.148;11.542;2022-12-10T06:34:48;28.20;;;21.93;;
45011;SDS011;63444;48.148;11.542;2022-12-10T06:37:13;29.13;;;22.87;;
45011;SDS011;63444;48.148;11.542;2022-12-10T06:39:39;26.70;;;21.07;;
45011;SDS011;63444;48.148;11.542;2022-12-10T06:42:05;25.77;;;20.93;;
45011;SDS011;63444;48.148;11.542;2022-12-10T06:44:30;28.33;;;20.93;;
45011;SDS011;63444;48.148;11.542;2022-12-10T06:46:56;29.90;;;22.57;;
45011;SDS011;63444;48.148;11.542;2022-12-10T06:49:22;29.60;;;23.43;;
45011;SDS011;63444;48.148;11.542;2022-12-10T06:51:48;31.40;;;23.30;;
45011;SDS011;63444;48.148;11.542;2022-12-10T06:54:13;31.80;;;22.93;;
45011;SDS011;63444;48.148;11.542;2022-12-10T06:56:39;31.73;;;22.40;;
45011;SDS011;63444;48.148;11.542;2022-12-10T06:59:05;34.20;;;24.27;;
45011;SDS011;63444;48.148;11.542;2022-12-10T07:01:35;28.50;;;21.70;;
45011;SDS011;63444;48.148;11.542;2022-12-10T07:04:02;28.57;;;20.73;;
45011;SDS011;63444;48.148;11.542;2022-12-10T07:06:30;33.87;;;24.03;;
45011;SDS011;63444;48.148;11.542;2022-12-10T07:08:56;30.53;;;22.03;;
45011;SDS011;63444;48.148;11.542;2022-12-10T07:11:22;31.27;;;23.00;;
45011;SDS011;63444;48.148;11.542;2022-12-10T07:13:48;32.80;;;24.10;;
45011;SDS011;63444;48.148;11.542;2022-12-10T07:16:17;31.27;;;23.10;;
45011;SDS011;63444;48.148;11.542;2022-12-10T07:18:44;33.40;;;22.83;;
45011;SDS011;63444;48.148;11.542;2022-12-10T07:21:18;31.50;;;23.47;;
45011;SDS011;63444;48.148;11.542;2022-12-10T07:23:49;28.47;;;21.57;;
45011;SDS011;63444;48.148;11.542;2022-12-10T07:26:15;31.13;;;21.30;;
45011;SDS011;63444;48.148;11.542;2022-12-10T07:28:41;24.97;;;19.37;;
45011;SDS011;63444;48.148;11.542;2022-12-10T07:31:07;30.63;;;22.40;;
45011;SDS011;63444;48.148;11.542;2022-12-10T07:33:34;29.87;;;21.30;;
45011;SDS011;63444;48.148;11.542;2022-12-10T07:36:05;26.43;;;20.50;;
45011;SDS011;63444;48.148;11.542;2022-12-10T07:38:32;24.70;;;18.77;;
45011;SDS011;63444;48.148;11.542;2022-12-10T07:41:03;27.50;;;20.57;;
45011;SDS011;63444;48.148;11.542;2022-12-10T07:43:29;28.53;;;20.97;;
45011;SDS011;63444;48.148;11.542;2022-12-10T07:45:55;26.00;;;19.53;;
45011;SDS011;63444;48.148;11.542;2022-12-10T07:48:28;28.60;;;20.47;;
45011;SDS011;63444;48.148;11.542;2022-12-10T07:50:57;27.43;;;20.37;;
45011;SDS011;63444;48.148;11.542;2022-12-10T07:53:24;32.50;;;21.30;;
45011;SDS011;63444;48.148;11.542;2022-12-10T07:55:51;28.07;;;19.77;;
45011;SDS011;63444;48.148;11.542;2022-12-10T07:58:17;26.33;;;20.13;;
45011;SDS011;63444;48.148;11.542;2022-12-10T08:00:42;24.97;;;19.57;;
45011;SDS011;63444;48.148;11.542;2022-12-10T08:03:08;25.80;;;19.50;;
45011;SDS011;63444;48.148;11.542;2022-12-10T08:05:33;27.77;;;20.40;;
45011;SDS011;63444;48.148;11.542;2022-12-10T08:07:59;23.50;;;18.00;;
45011;SDS011;63444;48.148;11.542;2022-12-10T08:10:25;25.20;;;19.40;;
45011;SDS011;63444;48.148;11.542;2022-12-10T08:12:53;25.27;;;18.17;;
45011;SDS011;63444;48.148;11.542;2022-12-10T08:15:19;27.03;;;20.57;;
45011;SDS011;63444;48.148;11.542;2022-12-10T08:17:45;24.57;;;19.10;;
45011;SDS011;63444;48.148;11.542;2022-12-10T08:20:10;23.00;;;17.87;;
45011;SDS011;63444;48.148;11.542;2022-12-10T08:22:39;22.50;;;17.77;;
45011;SDS011;63444;48.148;11.542;2022-12-10T08:25:06;24.30;;;19.37;;
45011;SDS011;63444;48.148;11.542;2022-12-10T08:27:33;25.50;;;19.20;;
45011;SDS011;63444;48.148;11.542;2022-12-10T08:29:59;25.03;;;18.73;;
45011;SDS011;63444;48.148;11.542;2022-12-10T08:32:27;23.93;;;18.50;;
45011;SDS011;63444;48.148;11.542;2022-12-10T08:34:53;25.47;;;19.33;;
45011;SDS011;63444;48.148;11.542;2022-12-10T08:37:19;23.87;;;18.90;;
45011;SDS011;63444;48.148;11.542;2022-12-10T08:39:44;25.60;;;19.00;;
45011;SDS011;63444;48.148;11.542;2022-12-10T08:42:10;25.73;;;19.90;;
45011;SDS011;63444;48.148;11.542;2022-12-10T08:44:37;30.33;;;21.37;;
45011;SDS011;63444;48.148;11.542;2022-12-10T08:47:03;26.17;;;20.33;;
45011;SDS011;63444;48.148;11.542;2022-12-10T08:49:28;28.53;;;21.17;;
45011;SDS011;63444;48.148;11.542;2022-12-10T08:51:54;24.43;;;18.90;;
45011;SDS011;63444;48.148;11.542;2022-12-10T08:54:19;27.70;;;20.93;;
45011;SDS011;63444;48.148;11.542;2022-12-10T08:56:45;28.60;;;21.10;;
45011;SDS011;63444;48.148;11.542;2022-12-10T08:59:11;30.97;;;22.83;;
45011;SDS011;63444;48.148;11.542;2022-12-10T09:01:37;29.50;;;21.80;;
45011;SDS011;63444;48.148;11.542;2022-12-10T09:04:03;28.87;;;22.60;;
45011;SDS011;63444;48.148;11.542;2022-12-10T09:06:30;32.47;;;23.00;;
45011;SDS011;63444;48.148;11.542;2022-12-10T09:08:56;30.30;;;23.50;;
45011;SDS011;63444;48.148;11.542;2022-12-10T09:11:27;29.13;;;21.97;;
45011;SDS011;63444;48.148;11.542;2022-12-10T09:13:55;32.83;;;23.70;;
45011;SDS011;63444;48.148;11.542;2022-12-10T09:16:21;31.47;;;23.37;;
45011;SDS011;63444;48.148;11.542;2022-12-10T09:18:52;29.80;;;23.17;;
45011;SDS011;63444;48.148;11.542;2022-12-10T09:21:18;31.93;;;24.47;;
45011;SDS011;63444;48.148;11.542;2022-12-10T09:23:44;32.77;;;24.77;;
45011;SDS011;63444;48.148;11.542;2022-12-10T09:26:13;31.63;;;23.77;;
45011;SDS011;63444;48.148;11.542;2022-12-10T09:28:40;31.27;;;22.23;;
45011;SDS011;63444;48.148;11.542;2022-12-10T09:31:08;31.70;;;23.90;;
45011;SDS011;63444;48.148;11.542;2022-12-10T09:33:35;31.87;;;23.50;;
45011;SDS011;63444;48.148;11.542;2022-12-10T09:36:03;28.20;;;22.13;;
45011;SDS011;63444;48.148;11.542;2022-12-10T09:38:30;29.77;;;22.97;;
45011;SDS011;63444;48.148;11.542;2022-12-10T09:41:02;31.20;;;23.13;;
45011;SDS011;63444;48.148;11.542;2022-12-10T09:51:38;33.97;;;23.87;;
45011;SDS011;63444;48.148;11.542;2022-12-10T09:54:25;36.13;;;23.17;;
45011;SDS011;63444;48.148;11.542;2022-12-10T09:56:56;31.63;;;22.57;;
45011;SDS011;63444;48.148;11.542;2022-12-10T09:59:30;33.33;;;23.63;;
45011;SDS011;63444;48.148;11.542;2022-12-10T10:02:20;30.47;;;22.77;;
45011;SDS011;63444;48.148;11.542;2022-12-10T10:04:48;34.80;;;23.50;;
45011;SDS011;63444;48.148;11.542;2022-12-10T10:07:22;34.10;;;24.77;;
45011;SDS011;63444;48.148;11.542;2022-12-10T10:09:51;33.53;;;24.30;;
45011;SDS011;63444;48.148;11.542;2022-12-10T10:12:23;29.30;;;22.50;;
45011;SDS011;63444;48.148;11.542;2022-12-10T10:14:48;30.77;;;22.23;;
45011;SDS011;63444;48.148;11.542;2022-12-10T10:17:19;34.03;;;23.50;;
45011;SDS011;63444;48.148;11.542;2022-12-10T10:19:51;31.90;;;22.77;;
45011;SDS011;63444;48.148;11.542;2022-12-10T10:22:16;30.13;;;22.30;;
45011;SDS011;63444;48.148;11.542;2022-12-10T10:24:43;32.40;;;22.90;;
45011;SDS011;63444;48.148;11.542;2022-12-10T10:27:12;33.37;;;23.63;;
45011;SDS011;63444;48.148;11.542;2022-12-10T10:29:38;32.57;;;23.33;;
45011;SDS011;63444;48.148;11.542;2022-12-10T10:32:16;31.80;;;22.27;;
45011;SDS011;63444;48.148;11.542;2022-12-10T10:34:43;29.43;;;21.40;;
45011;SDS011;63444;48.148;11.542;2022-12-10T10:37:30;33.03;;;22.37;;
45011;SDS011;63444;48.148;11.542;2022-12-10T10:40:05;30.90;;;23.47;;
45011;SDS011;63444;48.148;11.542;2022-12-10T10:42:47;30.87;;;22.60;;
45011;SDS011;63444;48.148;11.542;2022-12-10T10:45:35;34.23;;;23.87;;
45011;SDS011;63444;48.148;11.542;2022-12-10T10:48:08;31.10;;;22.07;;
45011;SDS011;63444;48.148;11.542;2022-12-10T10:51:05;33.80;;;23.30;;
45011;SDS011;63444;48.148;11.542;2022-12-10T11:01:50;33.13;;;23.23;;
45011;SDS011;63444;48.148;11.542;2022-12-10T11:04:18;33.97;;;23.63;;
45011;SDS011;63444;48.148;11.542;2022-12-10T11:07:03;35.67;;;24.10;;
45011;SDS011;63444;48.148;11.542;2022-12-10T11:09:32;31.73;;;23.27;;
45011;SDS011;63444;48.148;11.542;2022-12-10T11:12:00;30.23;;;22.97;;
45011;SDS011;63444;48.148;11.542;2022-12-10T11:14:32;32.63;;;23.50;;
45011;SDS011;63444;48.148;11.542;2022-12-10T11:17:28;33.30;;;23.63;;
45011;SDS011;63444;48.148;11.542;2022-12-10T11:20:00;32.17;;;23.50;;
45011;SDS011;63444;48.148;11.542;2022-12-10T11:22:38;30.33;;;23.20;;
45011;SDS011;63444;48.148;11.542;2022-12-10T11:25:14;32.60;;;22.87;;
45011;SDS011;63444;48.148;11.542;2022-12-10T11:30:18;31.07;;;23.07;;
45011;SDS011;63444;48.148;11.542;2022-12-10T11:35:40;32.97;;;23.83;;
45011;SDS011;63444;48.148;11.542;2022-12-10T11:38:28;31.40;;;23.00;;
45011;SDS011;63444;48.148;11.542;2022-12-10T11:54:10;29.73;;;22.90;;
45011;SDS011;63444;48.148;11.542;2022-12-10T11:59:40;32.77;;;24.07;;
45011;SDS011;63444;48.148;11.542;2022-12-10T12:05:19;32.30;;;23.20;;
45011;SDS011;63444;48.148;11.542;2022-12-10T12:08:06;32.33;;;23.80;;
45011;SDS011;63444;48.148;11.542;2022-12-10T12:10:54;30.93;;;23.00;;
45011;SDS011;63444;48.148;11.542;2022-12-10T12:13:40;32.27;;;23.40;;
45011;SDS011;63444;48.148;11.542;2022-12-10T12:16:16;31.23;;;22.47;;
45011;SDS011;63444;48.148;11.542;2022-12-10T12:21:21;31.70;;;23.03;;
45011;SDS011;63444;48.148;11.542;2022-12-10T12:23:58;34.97;;;24.87;;
45011;SDS011;63444;48.148;11.542;2022-12-10T12:26:37;33.07;;;24.27;;
45011;SDS011;63444;48.148;11.542;2022-12-10T12:29:09;34.43;;;25.83;;
45011;SDS011;63444;48.148;11.542;2022-12-10T12:32:29;31.97;;;24.20;;
45011;SDS011;63444;48.148;11.542;2022-12-10T12:37:02;31.27;;;23.17;;
45011;SDS011;63444;48.148;11.542;2022-12-10T12:39:38;29.90;;;22.70;;
45011;SDS011;63444;48.148;11.542;2022-12-10T12:45:17;29.47;;;22.17;;
45011;SDS011;63444;48.148;11.542;2022-12-10T12:53:35;35.37;;;23.40;;
45011;SDS011;63444;48.148;11.542;2022-12-10T12:56:17;32.20;;;24.13;;
45011;SDS011;63444;48.148;11.542;2022-12-10T13:04:06;33.87;;;24.77;;
45011;SDS011;63444;48.148;11.542;2022-12-10T13:06:36;32.73;;;24.73;;
45011;SDS011;63444;48.148;11.542;2022-12-10T13:11:38;33.67;;;24.97;;
45011;SDS011;63444;48.148;11.542;2022-12-10T13:19:22;34.53;;;25.60;;
45011;SDS011;63444;48.148;11.542;2022-12-10T13:43:26;34.27;;;25.13;;
45011;SDS011;63444;48.148;11.542;2022-12-10T13:46:30;35.90;;;25.87;;
45011;SDS011;63444;48.148;11.542;2022-12-10T13:48:59;35.97;;;26.20;;
45011;SDS011;63444;48.148;11.542;2022-12-10T14:00:00;32.27;;;24.50;;
45011;SDS011;63444;48.148;11.542;2022-12-10T14:08:36;34.10;;;23.90;;
45011;SDS011;63444;48.148;11.542;2022-12-10T14:11:18;29.67;;;22.43;;
45011;SDS011;63444;48.148;11.542;2022-12-10T14:13:48;39.13;;;28.20;;
45011;SDS011;63444;48.148;11.542;2022-12-10T14:16:18;34.37;;;25.30;;
45011;SDS011;63444;48.148;11.542;2022-12-10T14:18:51;31.67;;;23.07;;
45011;SDS011;63444;48.148;11.542;2022-12-10T14:21:20;32.83;;;25.23;;
45011;SDS011;63444;48.148;11.542;2022-12-10T14:23:49;31.73;;;24.10;;
45011;SDS011;63444;48.148;11.542;2022-12-10T14:26:16;37.33;;;25.23;;
45011;SDS011;63444;48.148;11.542;2022-12-10T14:28:47;33.47;;;25.33;;
45011;SDS011;63444;48.148;11.542;2022-12-10T14:31:26;31.80;;;24.93;;
45011;SDS011;63444;48.148;11.542;2022-12-10T14:34:03;34.10;;;25.97;;
45011;SDS011;63444;48.148;11.542;2022-12-10T14:36:37;31.60;;;24.77;;
45011;SDS011;63444;48.148;11.542;2022-12-10T14:39:11;33.77;;;24.53;;
45011;SDS011;63444;48.148;11.542;2022-12-10T14:41:40;32.53;;;24.37;;
45011;SDS011;63444;48.148;11.542;2022-12-10T14:44:05;30.07;;;22.67;;
45011;SDS011;63444;48.148;11.542;2022-12-10T14:46:36;31.27;;;24.50;;
45011;SDS011;63444;48.148;11.542;2022-12-10T14:49:01;35.70;;;25.30;;
45011;SDS011;63444;48.148;11.542;2022-12-10T14:51:33;31.57;;;23.63;;
45011;SDS011;63444;48.148;11.542;2022-12-10T14:54:02;36.27;;;26.97;;
45011;SDS011;63444;48.148;11.542;2022-12-10T14:56:35;34.47;;;26.40;;
45011;SDS011;63444;48.148;11.542;2022-12-10T14:59:04;32.97;;;24.83;;
45011;SDS011;63444;48.148;11.542;2022-12-10T15:01:42;31.67;;;24.50;;
45011;SDS011;63444;48.148;11.542;2022-12-10T15:04:12;31.53;;;24.27;;
45011;SDS011;63444;48.148;11.542;2022-12-10T15:06:40;37.37;;;26.17;;
45011;SDS011;63444;48.148;11.542;2022-12-10T15:09:11;35.53;;;27.43;;
45011;SDS011;63444;48.148;11.542;2022-12-10T15:11:40;33.13;;;24.57;;
45011;SDS011;63444;48.148;11.542;2022-12-10T15:14:05;31.67;;;24.20;;
45011;SDS011;63444;48.148;11.542;2022-12-10T15:16:43;34.67;;;24.93;;
45011;SDS011;63444;48.148;11.542;2022-12-10T15:22:27;43.27;;;31.70;;
45011;SDS011;63444;48.148;11.542;2022-12-10T15:24:47;36.90;;;26.23;;
45011;SDS011;63444;48.148;11.542;2022-12-10T15:27:16;33.13;;;25.90;;
45011;SDS011;63444;48.148;11.542;2022-12-10T15:29:47;33.77;;;25.53;;
45011;SDS011;63444;48.148;11.542;2022-12-10T15:32:13;33.47;;;25.67;;
45011;SDS011;63444;48.148;11.542;2022-12-10T15:35:01;33.00;;;25.17;;
45011;SDS011;63444;48.148;11.542;2022-12-10T15:37:34;34.17;;;25.77;;
45011;SDS011;63444;48.148;11.542;2022-12-10T15:40:04;32.37;;;24.70;;
45011;SDS011;63444;48.148;11.542;2022-12-10T15:47:56;29.33;;;22.87;;
45011;SDS011;63444;48.148;11.542;2022-12-10T15:50:23;29.53;;;23.13;;
45011;SDS011;63444;48.148;11.542;2022-12-10T15:52:50;27.83;;;21.43;;
45011;SDS011;63444;48.148;11.542;2022-12-10T15:55:16;26.90;;;20.87;;
45011;SDS011;63444;48.148;11.542;2022-12-10T15:57:42;24.73;;;18.87;;
45011;SDS011;63444;48.148;11.542;2022-12-10T16:00:22;24.73;;;18.10;;
45011;SDS011;63444;48.148;11.542;2022-12-10T16:02:50;25.17;;;19.30;;
45011;SDS011;63444;48.148;11.542;2022-12-10T16:05:20;23.70;;;18.60;;
45011;SDS011;63444;48.148;11.542;2022-12-10T16:07:46;24.27;;;19.33;;
45011;SDS011;63444;48.148;11.542;2022-12-10T16:10:14;24.43;;;18.70;;
45011;SDS011;63444;48.148;11.542;2022-12-10T16:12:41;25.50;;;20.03;;
45011;SDS011;63444;48.148;11.542;2022-12-10T16:15:17;24.00;;;18.37;;
45011;SDS011;63444;48.148;11.542;2022-12-10T16:17:46;23.93;;;18.50;;
45011;SDS011;63444;48.148;11.542;2022-12-10T16:22:44;24.73;;;18.87;;
45011;SDS011;63444;48.148;11.542;2022-12-10T16:25:11;22.77;;;18.57;;
45011;SDS011;63444;48.148;11.542;2022-12-10T16:27:37;25.40;;;20.30;;
45011;SDS011;63444;48.148;11.542;2022-12-10T16:32:41;26.93;;;20.60;;
45011;SDS011;63444;48.148;11.542;2022-12-10T16:35:07;27.17;;;20.17;;